createdAt,value
2019-05-16T00:01:38.439Z,41.50
2019-05-16T00:04:08.686Z,41.53
2019-05-16T00:06:39.160Z,41.76
2019-05-16T00:09:08.396Z,41.52
2019-05-16T00:11:38.426Z,41.50
2019-05-16T00:14:08.348Z,41.76
2019-05-16T00:16:38.130Z,41.77
2019-05-16T00:19:09.113Z,41.87
2019-05-16T00:21:38.476Z,41.90
2019-05-16T00:24:08.350Z,41.97
2019-05-16T00:26:38.822Z,42.03
2019-05-16T00:29:08.257Z,41.88
2019-05-16T00:31:38.250Z,41.93
2019-05-16T00:34:09.404Z,42.05
2019-05-16T00:36:38.399Z,42.10
2019-05-16T00:39:08.393Z,42.34
2019-05-16T00:41:38.543Z,42.34
2019-05-16T00:44:08.389Z,42.42
2019-05-16T00:46:38.578Z,42.34
2019-05-16T00:49:08.454Z,42.40
2019-05-16T00:51:37.799Z,42.32
2019-05-16T00:54:08.304Z,42.31
2019-05-16T00:56:38.381Z,42.41
2019-05-16T00:59:07.946Z,42.53
2019-05-16T01:01:38.878Z,42.56
2019-05-16T01:04:08.132Z,42.62
2019-05-16T01:06:38.026Z,42.67
2019-05-16T01:09:08.612Z,42.71
2019-05-16T01:11:38.253Z,42.67
2019-05-16T01:14:08.474Z,42.72
2019-05-16T01:16:38.270Z,42.83
2019-05-16T01:23:06.079Z,42.98
2019-05-16T01:25:35.700Z,43.29
2019-05-16T01:28:05.086Z,43.70
2019-05-16T01:30:34.169Z,43.79
2019-05-16T01:33:03.307Z,43.76
2019-05-16T01:35:32.879Z,43.74
2019-05-16T01:38:01.977Z,43.58
2019-05-16T01:40:31.091Z,43.40
2019-05-16T01:43:00.145Z,43.44
2019-05-16T01:45:29.183Z,43.27
2019-05-16T01:47:58.713Z,43.42
2019-05-16T01:50:28.407Z,43.39
2019-05-16T01:52:57.951Z,43.43
2019-05-16T01:55:28.559Z,43.51
2019-05-16T01:57:58.480Z,43.43
2019-05-16T02:00:35.641Z,43.27
2019-05-16T02:02:58.569Z,43.50
2019-05-16T02:05:28.004Z,43.60
2019-05-16T02:07:58.353Z,43.55
2019-05-16T02:10:28.454Z,43.62
2019-05-16T02:12:58.115Z,43.64
2019-05-16T02:15:28.591Z,43.66
2019-05-16T02:17:58.709Z,43.71
2019-05-16T02:20:28.337Z,43.80
2019-05-16T02:22:58.540Z,43.76
2019-05-16T02:25:27.775Z,43.90
2019-05-16T02:27:58.834Z,43.80
2019-05-16T02:30:31.275Z,43.95
2019-05-16T02:33:01.079Z,43.81
2019-05-16T02:35:31.115Z,43.92
2019-05-16T02:38:01.020Z,43.71
2019-05-16T02:40:31.473Z,43.68
2019-05-16T02:43:01.873Z,43.90
2019-05-16T02:45:32.432Z,43.92
2019-05-16T02:48:01.828Z,44.05
2019-05-16T02:50:31.763Z,44.01
2019-05-16T02:53:01.716Z,43.91
2019-05-16T02:55:31.141Z,43.76
2019-05-16T02:58:01.049Z,43.80
2019-05-16T03:00:35.857Z,43.76
2019-05-16T03:03:06.066Z,43.96
2019-05-16T03:05:35.268Z,44.07
2019-05-16T03:08:04.447Z,44.08
2019-05-16T03:10:33.668Z,43.89
2019-05-16T03:13:02.809Z,43.97
2019-05-16T03:15:31.889Z,44.14
2019-05-16T03:18:04.351Z,43.91
2019-05-16T03:20:33.995Z,43.77
2019-05-16T03:23:03.294Z,43.86
2019-05-16T03:25:32.618Z,43.96
2019-05-16T03:28:02.396Z,43.82
2019-05-16T03:30:34.935Z,43.82
2019-05-16T03:33:05.032Z,43.84
2019-05-16T03:35:34.400Z,43.66
2019-05-16T03:38:05.373Z,43.58
2019-05-16T03:40:35.637Z,43.50
2019-05-16T03:43:04.772Z,43.47
2019-05-16T03:45:33.838Z,43.53
2019-05-16T03:48:03.548Z,43.41
2019-05-16T03:50:32.907Z,43.50
2019-05-16T03:53:02.172Z,43.40
2019-05-16T03:55:32.637Z,43.41
2019-05-16T03:58:01.975Z,43.37
2019-05-16T04:00:52.764Z,43.28
2019-05-16T04:03:21.700Z,43.25
2019-05-16T04:05:52.573Z,43.35
2019-05-16T04:08:25.064Z,43.36
2019-05-16T04:10:53.212Z,43.45
2019-05-16T04:13:22.546Z,43.56
2019-05-16T04:15:52.857Z,43.64
2019-05-16T04:18:22.583Z,43.75
2019-05-16T04:20:52.817Z,43.72
2019-05-16T04:23:22.958Z,43.69
2019-05-16T04:25:53.055Z,43.64
2019-05-16T04:28:22.909Z,43.65
2019-05-16T04:30:52.180Z,43.68
2019-05-16T04:33:30.967Z,43.64
2019-05-16T04:36:01.253Z,43.54
2019-05-16T04:38:40.339Z,43.56
2019-05-16T04:41:02.124Z,43.59
2019-05-16T04:43:33.096Z,43.68
2019-05-16T04:46:02.375Z,43.96
2019-05-16T04:48:33.146Z,43.53
2019-05-16T04:51:02.758Z,43.36
2019-05-16T04:53:35.079Z,43.27
2019-05-16T04:56:04.673Z,43.15
2019-05-16T04:58:34.389Z,43.28
2019-05-16T05:01:03.730Z,43.26
2019-05-16T05:03:33.253Z,43.14
2019-05-16T05:06:02.912Z,42.91
2019-05-16T05:08:48.638Z,42.59
2019-05-16T05:11:03.489Z,42.36
2019-05-16T05:13:32.682Z,42.11
2019-05-16T05:16:02.049Z,41.67
2019-05-16T05:18:31.329Z,41.43
2019-05-16T05:21:01.042Z,41.59
2019-05-16T05:23:30.421Z,40.83
2019-05-16T05:26:00.255Z,40.53
2019-05-16T05:28:30.148Z,40.36
2019-05-16T05:30:59.934Z,40.37
2019-05-16T05:33:30.188Z,39.63
2019-05-16T05:36:01.174Z,39.05
2019-05-16T05:38:31.141Z,38.44
2019-05-16T05:41:00.701Z,38.30
2019-05-16T05:43:30.508Z,37.84
2019-05-16T05:46:00.697Z,37.60
2019-05-16T05:48:30.828Z,37.84
2019-05-16T05:51:00.475Z,37.13
2019-05-16T05:53:30.253Z,36.57
2019-05-16T05:56:00.444Z,35.70
2019-05-16T05:58:30.851Z,35.72
2019-05-16T06:01:00.911Z,35.79
2019-05-16T06:03:32.765Z,35.58
2019-05-16T06:06:01.313Z,35.46
2019-05-16T06:08:30.984Z,35.65
2019-05-16T06:11:00.741Z,35.64
2019-05-16T06:13:31.126Z,35.80
2019-05-16T06:16:00.680Z,35.71
2019-05-16T06:18:30.595Z,35.71
2019-05-16T06:21:00.581Z,35.78
2019-05-16T06:23:31.027Z,35.63
2019-05-16T06:26:03.954Z,35.79
2019-05-16T06:28:34.938Z,35.99
2019-05-16T06:31:04.716Z,35.84
2019-05-16T06:33:33.964Z,36.04
2019-05-16T06:36:03.300Z,35.86
2019-05-16T06:38:32.540Z,36.07
2019-05-16T06:41:01.802Z,36.22
2019-05-16T06:43:30.900Z,36.40
2019-05-16T06:46:00.660Z,36.56
2019-05-16T06:48:30.480Z,36.44
2019-05-16T06:51:03.057Z,36.23
2019-05-16T06:53:30.411Z,36.10
2019-05-16T06:56:00.112Z,36.06
2019-05-16T06:58:30.213Z,35.80
2019-05-16T07:01:03.389Z,35.85
2019-05-16T07:03:30.954Z,35.85
2019-05-16T07:06:00.521Z,36.07
2019-05-16T07:08:31.030Z,36.20
2019-05-16T07:11:00.295Z,36.32
2019-05-16T07:13:30.357Z,36.45
2019-05-16T07:16:00.497Z,36.53
2019-05-16T07:18:31.039Z,36.44
2019-05-16T07:21:01.549Z,36.58
2019-05-16T07:23:30.646Z,36.55
2019-05-16T07:26:00.852Z,36.64
2019-05-16T07:28:30.289Z,36.48
2019-05-16T07:31:00.692Z,36.53
2019-05-16T07:33:31.248Z,36.60
2019-05-16T07:36:00.558Z,36.19
2019-05-16T07:38:30.932Z,36.02
2019-05-16T07:41:00.653Z,36.10
2019-05-16T07:43:30.839Z,35.84
2019-05-16T07:46:00.759Z,35.71
2019-05-16T07:48:31.612Z,35.47
2019-05-16T07:51:00.815Z,35.20
2019-05-16T07:53:32.727Z,34.90
2019-05-16T07:56:00.759Z,34.43
2019-05-16T07:58:31.338Z,34.57
2019-05-16T08:01:07.695Z,34.72
2019-05-16T08:03:32.922Z,34.62
2019-05-16T08:06:02.214Z,34.61
2019-05-16T08:08:31.754Z,34.41
2019-05-16T08:11:01.724Z,34.35
2019-05-16T08:13:31.102Z,34.55
2019-05-16T08:16:01.086Z,34.50
2019-05-16T08:18:30.717Z,34.54
2019-05-16T08:21:01.050Z,34.32
2019-05-16T08:23:30.827Z,34.03
2019-05-16T08:26:01.235Z,34.26
2019-05-16T08:28:30.928Z,34.02
2019-05-16T08:31:01.029Z,34.21
2019-05-16T08:33:32.081Z,34.28
2019-05-16T08:36:07.025Z,34.08
2019-05-16T08:38:31.682Z,34.06
2019-05-16T08:41:11.654Z,34.32
2019-05-16T08:43:31.980Z,34.03
2019-05-16T08:46:01.413Z,33.91
2019-05-16T08:48:31.784Z,33.91
2019-05-16T08:51:02.842Z,34.08
2019-05-16T08:53:32.330Z,34.10
2019-05-16T08:56:02.628Z,34.31
2019-05-16T08:58:33.160Z,34.11
2019-05-16T09:01:02.926Z,33.99
2019-05-16T09:03:32.702Z,33.77
2019-05-16T09:06:03.080Z,33.52
2019-05-16T09:08:33.029Z,33.53
2019-05-16T09:11:24.923Z,32.58
2019-05-16T09:13:33.006Z,32.57
2019-05-16T09:16:02.105Z,32.43
2019-05-16T09:18:45.389Z,31.81
2019-05-16T09:21:01.912Z,31.25
2019-05-16T09:23:30.985Z,30.58
2019-05-16T09:25:59.959Z,31.15
2019-05-16T09:28:28.971Z,31.36
2019-05-16T09:30:58.156Z,31.22
2019-05-16T09:33:27.366Z,31.14
2019-05-16T09:35:57.530Z,30.62
2019-05-16T09:38:28.510Z,30.48
2019-05-16T09:40:57.666Z,30.20
2019-05-16T09:43:28.104Z,29.84
2019-05-16T09:46:03.862Z,28.84
2019-05-16T09:48:28.417Z,28.63
2019-05-16T09:50:57.946Z,27.85
2019-05-16T09:53:27.824Z,27.98
2019-05-16T09:55:57.706Z,27.45
2019-05-16T09:58:27.912Z,26.09
2019-05-16T10:00:57.705Z,24.55
2019-05-16T10:03:27.224Z,24.39
2019-05-16T10:05:57.291Z,24.78
2019-05-16T10:08:26.943Z,24.42
2019-05-16T10:10:57.147Z,24.33
2019-05-16T10:13:27.782Z,23.97
2019-05-16T10:15:57.148Z,22.77
2019-05-16T10:18:27.809Z,21.04
2019-05-16T10:20:59.304Z,19.85
2019-05-16T10:23:28.408Z,19.54
2019-05-16T10:25:57.631Z,18.92
2019-05-16T10:28:27.655Z,18.15
2019-05-16T10:30:57.109Z,17.36
2019-05-16T10:33:27.534Z,17.62
2019-05-16T10:35:57.956Z,18.21
2019-05-16T10:38:28.553Z,17.85
2019-05-16T10:40:57.882Z,17.73
2019-05-16T10:43:26.945Z,18.35
2019-05-16T10:45:56.054Z,19.31
2019-05-16T10:48:26.977Z,19.79
2019-05-16T10:50:57.747Z,20.62
2019-05-16T10:53:52.328Z,20.68
2019-05-16T10:55:57.500Z,21.49
2019-05-16T10:58:36.724Z,21.54
2019-05-16T11:01:15.104Z,21.75
2019-05-16T11:03:28.534Z,22.48
2019-05-16T11:06:05.417Z,22.34
2019-05-16T11:08:28.586Z,22.57
2019-05-16T11:10:57.818Z,23.05
2019-05-16T11:13:27.986Z,23.07
2019-05-16T11:15:57.305Z,22.55
2019-05-16T11:18:27.118Z,21.49
2019-05-16T11:20:58.146Z,20.82
2019-05-16T11:23:31.255Z,21.25
2019-05-16T11:25:58.995Z,21.46
2019-05-16T11:28:28.208Z,21.76
2019-05-16T11:31:03.360Z,22.48
2019-05-16T11:33:28.529Z,23.13
2019-05-16T11:35:57.811Z,23.59
2019-05-16T11:38:27.003Z,24.18
2019-05-16T11:40:56.845Z,24.75
2019-05-16T11:43:27.925Z,24.99
2019-05-16T11:45:57.554Z,25.07
2019-05-16T11:48:29.449Z,25.61
2019-05-16T11:50:57.797Z,25.84
2019-05-16T11:53:28.330Z,26.19
2019-05-16T11:56:01.265Z,26.36
2019-05-16T11:58:28.402Z,26.44
2019-05-16T12:00:57.706Z,26.61
2019-05-16T12:03:28.259Z,27.20
2019-05-16T12:05:58.102Z,27.68
2019-05-16T12:08:27.344Z,28.27
2019-05-16T12:10:56.405Z,28.56
2019-05-16T12:13:31.837Z,28.55
2019-05-16T12:15:56.673Z,28.71
2019-05-16T12:18:26.584Z,28.72
2019-05-16T12:20:56.674Z,28.72
2019-05-16T12:23:27.665Z,28.37
2019-05-16T12:25:56.717Z,28.45
2019-05-16T12:28:27.216Z,28.84
2019-05-16T12:30:56.477Z,29.13
2019-05-16T12:33:27.463Z,29.28
2019-05-16T12:35:57.509Z,29.38
2019-05-16T12:38:27.628Z,29.44
2019-05-16T12:40:57.046Z,29.58
2019-05-16T12:43:44.191Z,29.79
2019-05-16T12:45:57.154Z,29.90
2019-05-16T12:48:26.243Z,30.03
2019-05-16T12:50:58.702Z,30.10
2019-05-16T12:53:31.823Z,30.25
2019-05-16T12:55:58.184Z,30.47
2019-05-16T12:58:37.669Z,30.26
2019-05-16T13:01:02.435Z,30.40
2019-05-16T13:03:31.696Z,30.67
2019-05-16T13:06:01.393Z,30.67
2019-05-16T13:08:30.920Z,31.01
2019-05-16T13:11:07.080Z,31.46
2019-05-16T13:13:37.703Z,31.53
2019-05-16T13:16:12.254Z,31.84
2019-05-16T13:18:41.921Z,32.57
2019-05-16T13:21:13.815Z,32.90
2019-05-16T13:23:48.071Z,33.05
2019-05-16T13:26:33.930Z,33.17
2019-05-16T13:29:33.169Z,33.29
2019-05-16T13:32:17.297Z,33.23
2019-05-16T13:34:59.277Z,33.15
2019-05-16T13:37:30.989Z,34.08
2019-05-16T13:40:17.026Z,34.00
2019-05-16T13:42:48.553Z,34.04
2019-05-16T13:45:40.286Z,34.15
2019-05-16T13:48:13.026Z,34.15
2019-05-16T13:51:10.581Z,34.72
2019-05-16T13:53:39.529Z,34.54
2019-05-16T13:56:13.338Z,34.60
2019-05-16T13:58:53.926Z,34.41
2019-05-16T14:01:23.455Z,34.65
2019-05-16T14:03:52.780Z,34.80
2019-05-16T14:06:23.390Z,34.90
2019-05-16T14:08:56.803Z,34.71
2019-05-16T14:11:31.490Z,34.83
2019-05-16T14:14:04.863Z,35.01
2019-05-16T14:16:37.704Z,34.91
2019-05-16T14:19:10.591Z,35.12
2019-05-16T14:21:47.584Z,35.33
2019-05-16T14:24:18.017Z,35.35
2019-05-16T14:26:50.750Z,35.43
2019-05-16T14:29:32.890Z,35.24
2019-05-16T14:32:12.095Z,35.52
2019-05-16T14:34:50.527Z,35.56
2019-05-16T14:37:29.103Z,35.86
2019-05-16T14:40:02.328Z,35.97
2019-05-16T14:42:32.529Z,36.12
2019-05-16T14:45:12.505Z,35.96
2019-05-16T14:47:48.072Z,35.95
2019-05-16T14:50:17.822Z,36.00
2019-05-16T14:52:49.079Z,36.04
2019-05-16T14:55:18.882Z,35.87
2019-05-16T14:57:48.159Z,35.84
2019-05-16T15:00:41.930Z,35.99
2019-05-16T15:03:11.951Z,36.19
2019-05-16T15:05:56.224Z,36.28
2019-05-16T15:08:28.033Z,36.56
2019-05-16T15:10:57.522Z,36.75
2019-05-16T15:13:27.963Z,36.74
2019-05-16T15:15:57.623Z,36.67
2019-05-16T15:18:29.986Z,36.81
2019-05-16T15:21:01.767Z,36.77
2019-05-16T15:23:34.943Z,36.81
2019-05-16T15:26:08.963Z,36.60
2019-05-16T15:28:37.675Z,36.06
2019-05-16T15:31:08.967Z,35.91
2019-05-16T15:33:42.575Z,35.95
2019-05-16T15:36:16.675Z,35.72
2019-05-16T15:38:47.676Z,35.57
2019-05-16T15:41:18.728Z,35.27
2019-05-16T15:43:53.226Z,35.15
2019-05-16T15:46:33.265Z,35.23
2019-05-16T15:49:09.660Z,35.32
2019-05-16T15:51:39.864Z,35.56
2019-05-16T15:54:09.747Z,35.69
2019-05-16T15:56:39.727Z,35.87
2019-05-16T15:59:17.764Z,35.86
2019-05-16T16:01:58.239Z,35.95
2019-05-16T16:04:28.444Z,36.18
2019-05-16T16:06:58.692Z,36.23
2019-05-16T16:09:29.254Z,36.23
2019-05-16T16:11:59.934Z,36.22
2019-05-16T16:14:30.792Z,36.14
2019-05-16T16:17:03.546Z,35.71
2019-05-16T16:19:33.333Z,35.14
2019-05-16T16:22:02.943Z,34.85
2019-05-16T16:24:33.008Z,34.77
2019-05-16T16:27:02.481Z,34.90
2019-05-16T16:29:36.752Z,34.88
2019-05-16T16:32:10.192Z,34.75
2019-05-16T16:34:42.751Z,35.04
2019-05-16T16:37:16.782Z,35.12
2019-05-16T16:39:47.250Z,35.33
2019-05-16T16:42:16.691Z,35.61
2019-05-16T16:44:49.001Z,35.77
2019-05-16T16:47:20.156Z,35.86
2019-05-16T16:49:49.590Z,35.94
2019-05-16T16:52:18.707Z,36.35
2019-05-16T16:54:47.924Z,36.44
2019-05-16T16:57:17.690Z,36.73
2019-05-16T16:59:47.626Z,36.80
2019-05-16T17:02:17.192Z,37.03
2019-05-16T17:04:51.077Z,37.21
2019-05-16T17:07:17.312Z,37.25
2019-05-16T17:09:47.104Z,37.36
2019-05-16T17:12:16.349Z,37.44
2019-05-16T17:14:46.502Z,37.53
2019-05-16T17:17:17.654Z,37.56
2019-05-16T17:19:47.373Z,37.95
2019-05-16T17:22:20.249Z,37.88
2019-05-16T17:24:47.489Z,37.96
2019-05-16T17:27:16.582Z,38.13
2019-05-16T17:29:47.415Z,38.23
2019-05-16T17:32:16.782Z,38.32
2019-05-16T17:34:45.856Z,38.50
2019-05-16T17:37:17.017Z,38.59
2019-05-16T17:39:47.506Z,38.62
2019-05-16T17:42:20.734Z,38.72
2019-05-16T17:44:49.821Z,38.87
2019-05-16T17:47:18.874Z,39.00
2019-05-16T17:49:47.985Z,39.06
2019-05-16T17:52:17.104Z,39.12
2019-05-16T17:54:46.298Z,39.23
2019-05-16T17:57:16.917Z,39.46
2019-05-16T17:59:47.945Z,39.70
2019-05-16T18:02:17.336Z,39.77
2019-05-16T18:04:47.158Z,40.04
2019-05-16T18:07:17.200Z,40.61
2019-05-16T18:09:48.329Z,40.93
2019-05-16T18:12:18.124Z,41.12
2019-05-16T18:14:50.176Z,41.57
2019-05-16T18:17:18.712Z,41.78
2019-05-16T18:19:47.912Z,41.90
2019-05-16T18:22:17.113Z,42.26
2019-05-16T18:24:47.393Z,42.37
2019-05-16T18:27:17.275Z,42.26
2019-05-16T18:29:47.096Z,42.31
2019-05-16T18:32:17.015Z,42.29
2019-05-16T18:34:46.450Z,42.32
2019-05-16T18:37:17.321Z,42.31
2019-05-16T18:39:47.399Z,42.50
2019-05-16T18:42:16.988Z,43.02
2019-05-16T18:44:47.216Z,43.34
2019-05-16T18:47:16.661Z,43.86
2019-05-16T18:49:47.339Z,44.35
2019-05-16T18:52:17.333Z,44.44
2019-05-16T18:54:47.063Z,44.83
2019-05-16T18:57:17.561Z,45.06
2019-05-16T18:59:47.029Z,45.06
2019-05-16T19:02:17.937Z,45.25
2019-05-16T19:04:50.095Z,45.64
2019-05-16T19:07:17.959Z,45.95
2019-05-16T19:09:47.022Z,46.13
2019-05-16T19:12:16.989Z,46.33
2019-05-16T19:14:47.246Z,46.66
2019-05-16T19:17:22.058Z,46.76
2019-05-16T19:19:47.456Z,47.03
2019-05-16T19:22:17.124Z,47.37
2019-05-16T19:24:46.501Z,47.78
2019-05-16T19:27:17.267Z,48.13
2019-05-16T19:29:46.480Z,48.43
2019-05-16T19:32:17.237Z,48.53
2019-05-16T19:34:49.150Z,48.77
2019-05-16T19:37:17.323Z,49.10
2019-05-16T19:39:46.419Z,49.34
2019-05-16T19:42:17.122Z,49.50
2019-05-16T19:44:46.577Z,49.90
2019-05-16T19:47:15.729Z,50.02
2019-05-16T19:49:46.435Z,50.33
2019-05-16T19:52:16.373Z,50.62
2019-05-16T19:54:47.115Z,50.76
2019-05-16T19:57:17.487Z,51.01
2019-05-16T19:59:47.278Z,51.15
2019-05-16T20:02:16.702Z,51.19
2019-05-16T20:04:47.079Z,51.52
2019-05-16T20:07:16.782Z,51.68
2019-05-16T20:09:46.985Z,51.79
2019-05-16T20:12:16.922Z,51.93
2019-05-16T20:14:47.304Z,52.20
2019-05-16T20:17:19.278Z,52.22
2019-05-16T20:19:47.804Z,52.54
2019-05-16T20:22:16.922Z,52.70
2019-05-16T20:24:46.851Z,52.89
2019-05-16T20:27:17.056Z,52.94
2019-05-16T20:29:47.429Z,53.09
2019-05-16T20:32:16.940Z,53.39
2019-05-16T20:34:46.813Z,53.47
2019-05-16T20:37:17.387Z,53.63
2019-05-16T20:39:46.746Z,53.75
2019-05-16T20:42:17.136Z,53.79
2019-05-16T20:44:49.645Z,53.85
2019-05-16T20:47:17.249Z,53.87
2019-05-16T20:49:47.784Z,53.85
2019-05-16T20:52:17.517Z,54.00
2019-05-16T20:54:49.831Z,54.00
2019-05-16T20:57:17.760Z,53.96
2019-05-16T20:59:49.193Z,54.06
2019-05-16T21:02:17.800Z,54.04
2019-05-16T21:04:46.858Z,54.04
2019-05-16T21:07:17.232Z,54.03
2019-05-16T21:09:46.470Z,54.10
2019-05-16T21:12:17.263Z,54.16
2019-05-16T21:14:46.563Z,54.21
2019-05-16T21:17:17.420Z,54.21
2019-05-16T21:19:48.297Z,54.28
2019-05-16T21:22:19.380Z,54.45
2019-05-16T21:24:47.944Z,54.54
2019-05-16T21:27:19.066Z,54.72
2019-05-16T21:29:47.889Z,54.86
2019-05-16T21:32:16.973Z,54.82
2019-05-16T21:34:46.931Z,55.08
2019-05-16T21:37:19.656Z,55.13
2019-05-16T21:39:47.536Z,55.10
2019-05-16T21:42:16.717Z,55.54
2019-05-16T21:44:46.664Z,55.45
2019-05-16T21:47:16.812Z,55.37
2019-05-16T21:49:47.235Z,55.31
2019-05-16T21:52:16.297Z,55.43
2019-05-16T21:54:47.195Z,55.35
2019-05-16T21:57:19.704Z,55.48
2019-05-16T21:59:47.778Z,55.49
2019-05-16T22:02:17.067Z,55.38
2019-05-16T22:04:47.381Z,55.22
2019-05-16T22:07:16.652Z,55.30
2019-05-16T22:09:46.566Z,55.51
2019-05-16T22:12:17.311Z,55.31
2019-05-16T22:14:50.635Z,55.44
2019-05-16T22:17:19.745Z,55.50
2019-05-16T22:19:48.854Z,55.51
2019-05-16T22:22:17.897Z,55.38
2019-05-16T22:24:49.313Z,55.41
2019-05-16T22:27:17.849Z,55.42
2019-05-16T22:29:46.930Z,55.49
2019-05-16T22:32:16.499Z,55.56
2019-05-16T22:34:47.616Z,55.43
2019-05-16T22:37:17.155Z,55.45
2019-05-16T22:39:46.418Z,55.43
2019-05-16T22:42:17.610Z,55.22
2019-05-16T22:44:46.707Z,55.37
2019-05-16T22:47:17.172Z,55.45
2019-05-16T22:49:47.570Z,55.48
2019-05-16T22:52:17.268Z,55.61
2019-05-16T22:54:47.660Z,55.83
2019-05-16T22:57:17.852Z,55.92
2019-05-16T22:59:46.929Z,55.94
2019-05-16T23:02:16.828Z,55.88
2019-05-16T23:04:47.520Z,55.95
2019-05-16T23:07:16.759Z,56.10
2019-05-16T23:09:47.212Z,56.11
2019-05-16T23:12:17.433Z,56.22
2019-05-16T23:14:47.366Z,56.12
2019-05-16T23:17:17.255Z,56.12
2019-05-16T23:19:47.414Z,56.01
2019-05-16T23:22:16.879Z,55.97
2019-05-16T23:24:46.346Z,56.09
2019-05-16T23:27:15.582Z,56.14
2019-05-16T23:29:44.577Z,56.23
2019-05-16T23:32:13.763Z,56.26
2019-05-16T23:34:42.801Z,56.25
2019-05-16T23:37:11.934Z,56.19
2019-05-16T23:39:41.001Z,56.23
2019-05-16T23:42:10.184Z,56.28
2019-05-16T23:44:39.296Z,56.49
2019-05-16T23:47:08.414Z,56.58
2019-05-16T23:49:37.467Z,56.67
2019-05-16T23:52:07.500Z,56.72
2019-05-16T23:54:36.948Z,56.88
2019-05-16T23:57:06.678Z,56.86
2019-05-16T23:59:36.881Z,56.99
